Time;durP1;ratioP1;P1;durP2;ratioP2;P2;SDS_P1;SDS_P2;PMS_P1;PMS_P2;Temp;Humidity;BMP_temperature;BMP_pressure;BME280_temperature;BME280_humidity;BME280_pressure;Samples;Min_cycle;Max_cycle;Signal;HPM_P1;HPM_P2
2022/04/11 00:00:34;;;;;;;18.60;8.80;;;;;;;2.77;64.15;100190.23;128067;1290;100545;-77
2022/04/11 00:03:42;;;;;;;14.30;8.60;;;;;;;2.79;64.57;100191.33;128092;1290;100557;-77
2022/04/11 00:06:45;;;;;;;17.90;9.00;;;;;;;2.78;64.53;100196.70;127989;1290;99402;-77
2022/04/11 00:09:48;;;;;;;13.80;8.50;;;;;;;2.74;64.58;100196.58;127901;1290;100541;-79
2022/04/11 00:12:51;;;;;;;16.80;8.70;;;;;;;2.71;64.73;100197.48;128061;1290;100553;-78
2022/04/11 00:15:54;;;;;;;17.40;8.90;;;;;;;2.66;64.54;100196.40;128099;1290;99393;-78
2022/04/11 00:18:57;;;;;;;15.00;9.00;;;;;;;2.63;64.52;100202.09;128483;1290;99382;-77
2022/04/11 00:21:59;;;;;;;17.30;9.70;;;;;;;2.59;64.88;100205.32;127996;1290;100076;-76
2022/04/11 00:25:02;;;;;;;17.90;9.00;;;;;;;2.56;65.00;100209.74;127882;1290;292493;-76
2022/04/11 00:28:05;;;;;;;16.40;8.70;;;;;;;2.57;65.04;100212.30;127876;1290;99389;-77
2022/04/11 00:31:08;;;;;;;13.80;7.40;;;;;;;2.61;65.51;100216.25;127876;1290;99405;-77
2022/04/11 00:34:11;;;;;;;15.10;8.50;;;;;;;2.67;65.19;100214.80;127665;1291;100440;-73
2022/04/11 00:37:13;;;;;;;15.50;8.30;;;;;;;2.71;64.97;100214.00;127987;1289;99364;-73
2022/04/11 00:40:17;;;;;;;13.30;8.60;;;;;;;2.74;64.88;100216.64;128069;1290;99364;-72
2022/04/11 00:43:33;;;;;;;18.50;9.30;;;;;;;2.73;65.24;100220.16;127933;1290;99441;-78
2022/04/11 00:46:36;;;;;;;16.60;8.50;;;;;;;2.68;65.19;100228.08;128107;1290;99431;-77
2022/04/11 00:49:39;;;;;;;14.50;8.80;;;;;;;2.66;65.21;100227.36;127922;1290;100578;-77
2022/04/11 00:52:45;;;;;;;14.00;8.10;;;;;;;2.63;65.18;100226.32;127990;1290;99428;-77
2022/04/11 00:55:47;;;;;;;14.20;8.70;;;;;;;2.57;65.27;100233.41;127942;1290;100577;-77
2022/04/11 00:58:51;;;;;;;16.10;9.00;;;;;;;2.51;65.47;100234.99;127708;1290;100076;-76
2022/04/11 01:01:54;;;;;;;17.60;9.20;;;;;;;2.48;65.86;100237.48;127678;1290;99447;-76
2022/04/11 01:04:57;;;;;;;18.70;9.90;;;;;;;2.41;65.69;100242.35;127816;1290;100579;-76
2022/04/11 01:08:06;;;;;;;19.00;8.80;;;;;;;2.35;66.15;100240.77;127692;1291;99906;-77
2022/04/11 01:11:09;;;;;;;13.80;7.00;;;;;;;2.32;66.04;100245.34;128038;1290;99351;-77
2022/04/11 01:14:12;;;;;;;17.00;8.80;;;;;;;2.36;66.13;100246.02;127691;1290;99894;-77
2022/04/11 01:17:15;;;;;;;14.90;7.90;;;;;;;2.39;66.08;100249.71;127795;1291;99398;-77
2022/04/11 01:20:19;;;;;;;14.50;8.40;;;;;;;2.40;65.95;100252.81;128053;1290;99360;-76
2022/04/11 01:23:22;;;;;;;16.20;8.60;;;;;;;2.39;66.34;100253.55;127711;1290;99438;-78
2022/04/11 01:26:27;;;;;;;12.80;8.00;;;;;;;2.38;66.48;100258.50;127949;1290;99444;-78
2022/04/11 01:29:30;;;;;;;15.20;8.40;;;;;;;2.34;66.67;100258.05;127624;1290;99449;-74
2022/04/11 01:32:33;;;;;;;13.60;7.80;;;;;;;2.33;66.54;100261.30;127946;1290;100039;-74
2022/04/11 01:35:35;;;;;;;14.90;8.40;;;;;;;2.32;66.70;100260.85;127921;1290;99419;-75
2022/04/11 01:38:39;;;;;;;13.70;7.90;;;;;;;2.33;67.08;100258.67;128059;1290;99504;-77
2022/04/11 01:41:43;;;;;;;12.00;7.20;;;;;;;2.39;66.91;100264.23;128023;1290;99959;-77
2022/04/11 01:44:47;;;;;;;9.40;5.70;;;;;;;2.50;66.98;100263.17;127993;1290;99379;-75
2022/04/11 01:47:49;;;;;;;12.70;7.20;;;;;;;2.64;67.13;100266.65;127612;1290;100640;-74
2022/04/11 01:50:52;;;;;;;12.60;7.20;;;;;;;2.78;67.10;100270.60;127733;1290;100043;-74
2022/04/11 01:53:55;;;;;;;13.60;7.90;;;;;;;2.88;67.01;100271.89;128030;1291;99372;-73
2022/04/11 01:56:58;;;;;;;11.80;7.30;;;;;;;2.95;67.03;100276.33;127711;1290;99406;-76
2022/04/11 02:00:01;;;;;;;12.60;7.20;;;;;;;3.01;66.99;100279.14;127644;1290;99363;-76
2022/04/11 02:03:06;;;;;;;12.70;7.80;;;;;;;3.04;66.95;100277.10;127917;1291;100561;-74
2022/04/11 02:06:09;;;;;;;11.80;7.20;;;;;;;3.07;67.13;100278.13;127680;1294;99485;-76
2022/04/11 02:09:11;;;;;;;12.90;8.10;;;;;;;3.06;67.16;100278.92;128020;1290;100551;-74
2022/04/11 02:12:14;;;;;;;14.10;7.80;;;;;;;3.07;67.31;100278.65;128021;1290;99414;-74
2022/04/11 02:15:18;;;;;;;13.40;8.70;;;;;;;3.07;67.38;100281.31;127681;1291;99456;-75
2022/04/11 02:18:21;;;;;;;13.80;8.10;;;;;;;3.07;67.60;100278.36;127713;1291;99455;-74
2022/04/11 02:21:23;;;;;;;12.90;7.10;;;;;;;3.07;67.64;100280.80;128102;1290;99414;-75
2022/04/11 02:24:26;;;;;;;14.00;8.20;;;;;;;3.11;67.78;100277.88;127861;1291;100432;-76
2022/04/11 02:27:29;;;;;;;14.10;8.60;;;;;;;3.14;67.57;100277.86;127874;1291;100439;-74
2022/04/11 02:30:32;;;;;;;13.40;7.70;;;;;;;3.16;67.69;100279.15;128106;1290;100124;-76
2022/04/11 02:33:35;;;;;;;13.10;7.70;;;;;;;3.16;67.56;100276.34;127945;1290;99565;-75
2022/04/11 02:36:38;;;;;;;11.40;7.60;;;;;;;3.15;67.49;100280.43;127632;1290;100749;-75
2022/04/11 02:39:40;;;;;;;13.10;7.80;;;;;;;3.07;67.68;100280.27;127883;1290;100007;-74
2022/04/11 02:42:45;;;;;;;12.70;7.60;;;;;;;2.96;67.75;100285.41;128137;1290;99812;-74
2022/04/11 02:45:49;;;;;;;13.60;7.90;;;;;;;2.85;67.89;100285.06;127835;1291;99392;-73
2022/04/11 02:48:56;;;;;;;13.60;7.80;;;;;;;2.76;67.96;100286.55;128056;1290;99404;-74
2022/04/11 02:52:07;;;;;;;12.00;7.70;;;;;;;2.71;68.02;100287.05;128031;1290;99472;-75
2022/04/11 02:55:10;;;;;;;12.90;7.60;;;;;;;2.71;68.36;100290.59;127939;1290;99383;-74
2022/04/11 02:58:15;;;;;;;12.10;6.40;;;;;;;2.76;68.24;100287.82;127633;1289;99828;-76
2022/04/11 03:01:18;;;;;;;11.30;6.90;;;;;;;2.86;68.20;100286.98;127983;1290;99428;-81
2022/04/11 03:04:22;;;;;;;11.30;7.20;;;;;;;2.94;67.89;100286.78;128256;1290;100581;-76
2022/04/11 03:07:31;;;;;;;10.30;7.20;;;;;;;2.97;67.93;100291.83;128054;1290;100575;-75
2022/04/11 03:10:34;;;;;;;14.40;8.00;;;;;;;2.91;67.88;100293.67;128062;1290;99517;-77
2022/04/11 03:13:39;;;;;;;11.00;6.80;;;;;;;2.87;68.05;100297.80;127718;1291;100564;-78
2022/04/11 03:16:42;;;;;;;12.40;7.70;;;;;;;2.80;67.94;100300.05;128005;1290;100977;-77
2022/04/11 03:19:46;;;;;;;9.80;7.00;;;;;;;2.75;68.10;100305.79;127965;1290;99370;-76
2022/04/11 03:22:49;;;;;;;240.10;129.20;;;;;;;2.70;68.30;100309.65;127736;1291;100115;-75
2022/04/11 03:25:52;;;;;;;141.00;71.80;;;;;;;2.64;68.24;100309.33;127913;1290;100555;-76
2022/04/11 03:28:58;;;;;;;141.90;64.30;;;;;;;2.62;68.21;100310.99;127857;1291;100553;-76
2022/04/11 03:32:01;;;;;;;108.20;48.00;;;;;;;2.61;68.38;100315.11;127771;1290;99385;-75
2022/04/11 03:35:09;;;;;;;70.30;31.70;;;;;;;2.64;68.37;100317.92;127832;1290;99455;-76
2022/04/11 03:38:14;;;;;;;76.90;34.50;;;;;;;2.70;68.35;100317.52;127891;1290;99411;-75
2022/04/11 03:41:17;;;;;;;109.30;43.30;;;;;;;2.78;68.38;100316.63;127917;1290;99389;-77
2022/04/11 03:44:21;;;;;;;33.80;16.20;;;;;;;2.86;68.40;100316.85;128095;1290;99490;-76
2022/04/11 03:47:25;;;;;;;21.50;11.60;;;;;;;2.90;68.30;100316.38;128021;1290;99809;-77
2022/04/11 03:50:28;;;;;;;15.80;9.70;;;;;;;2.91;68.40;100315.13;128059;1289;99329;-77
2022/04/11 03:53:31;;;;;;;13.60;9.50;;;;;;;2.89;68.59;100317.02;127809;1290;100440;-77
2022/04/11 03:56:35;;;;;;;17.80;9.80;;;;;;;2.82;68.53;100320.94;127869;1290;99356;-76
2022/04/11 03:59:39;;;;;;;12.70;8.40;;;;;;;2.79;68.71;100325.23;127726;1290;99366;-76
2022/04/11 04:02:42;;;;;;;24.10;14.00;;;;;;;2.73;68.60;100327.34;127840;1290;99396;-78
2022/04/11 04:05:48;;;;;;;57.70;31.60;;;;;;;2.73;68.59;100327.67;127800;1290;99427;-75
2022/04/11 04:08:54;;;;;;;103.40;40.00;;;;;;;2.74;68.94;100326.73;127966;1289;100555;-77
2022/04/11 04:12:10;;;;;;;19.70;9.90;;;;;;;2.78;69.07;100331.77;127986;1290;99399;-76
2022/04/11 04:15:19;;;;;;;56.10;20.70;;;;;;;2.77;68.93;100334.62;127875;1290;99370;-75
2022/04/11 04:18:26;;;;;;;73.80;29.20;;;;;;;2.78;68.84;100337.77;127965;1290;100576;-75
2022/04/11 04:21:29;;;;;;;51.10;20.80;;;;;;;2.84;68.82;100340.16;127909;1290;99364;-77
2022/04/11 04:24:34;;;;;;;80.00;22.50;;;;;;;2.87;68.76;100339.79;127967;1290;99816;-77
2022/04/11 04:27:37;;;;;;;39.00;14.30;;;;;;;2.84;68.89;100339.09;128083;1290;99397;-76
2022/04/11 04:30:41;;;;;;;122.60;37.10;;;;;;;2.80;68.91;100342.34;127840;1291;99777;-75
2022/04/11 04:33:44;;;;;;;86.60;30.70;;;;;;;2.84;68.76;100344.90;127998;1289;99382;-77
2022/04/11 04:36:48;;;;;;;143.70;46.70;;;;;;;2.92;69.14;100349.28;127982;1290;99415;-76
2022/04/11 04:39:51;;;;;;;230.40;65.30;;;;;;;2.99;68.98;100354.47;127692;1290;99417;-79
2022/04/11 04:42:54;;;;;;;116.80;40.80;;;;;;;3.04;69.13;100356.03;128086;1290;99789;-75
2022/04/11 04:45:57;;;;;;;80.50;26.90;;;;;;;3.07;68.91;100352.17;128002;1290;99442;-76
2022/04/11 04:49:26;;;;;;;138.80;76.40;;;;;;;3.12;69.05;100353.92;127993;1290;99366;-77
2022/04/11 04:52:30;;;;;;;47.00;28.60;;;;;;;3.13;68.98;100353.48;127648;1294;100553;-75
2022/04/11 04:55:36;;;;;;;26.50;15.50;;;;;;;3.08;68.83;100359.98;127901;1289;99896;-75
2022/04/11 04:58:39;;;;;;;16.60;9.90;;;;;;;3.06;68.98;100360.29;127874;1290;99818;-75
2022/04/11 05:01:43;;;;;;;20.80;13.80;;;;;;;3.03;69.14;100366.14;127772;1290;99395;-75
2022/04/11 05:04:46;;;;;;;13.00;7.20;;;;;;;3.14;69.53;100368.72;127972;1290;99485;-78
2022/04/11 05:07:49;;;;;;;13.70;6.70;;;;;;;3.32;69.55;100374.39;128015;1290;99795;-76
2022/04/11 05:10:54;;;;;;;14.60;6.40;;;;;;;3.43;69.30;100376.11;127949;1290;99384;-76
2022/04/11 05:13:57;;;;;;;12.50;7.00;;;;;;;3.49;69.17;100375.33;127984;1290;99458;-76
2022/04/11 05:17:01;;;;;;;304.00;131.20;;;;;;;3.53;68.91;100378.22;127927;1290;99388;-77
2022/04/11 05:20:08;;;;;;;130.10;79.00;;;;;;;3.47;68.78;100382.34;127621;1294;99993;-76
2022/04/11 05:23:11;;;;;;;24.30;12.90;;;;;;;3.48;68.96;100384.35;127638;1291;99370;-78
2022/04/11 05:26:18;;;;;;;17.30;12.30;;;;;;;3.57;68.93;100383.94;127656;1290;99446;-74
2022/04/11 05:29:21;;;;;;;21.70;15.60;;;;;;;3.67;69.05;100387.82;127663;1290;99392;-76
2022/04/11 05:32:24;;;;;;;15.90;10.00;;;;;;;3.74;68.95;100389.48;127505;1293;99815;-76
2022/04/11 05:35:27;;;;;;;28.20;19.10;;;;;;;3.90;68.89;100386.41;127665;1290;99472;-75
2022/04/11 05:38:30;;;;;;;279.30;149.50;;;;;;;4.03;68.83;100390.11;127725;1290;99347;-74
2022/04/11 05:41:33;;;;;;;55.00;36.00;;;;;;;4.20;68.70;100388.91;127610;1291;100542;-76
2022/04/11 05:44:36;;;;;;;29.70;20.50;;;;;;;4.47;68.67;100390.88;127724;1290;99792;-77
2022/04/11 05:47:39;;;;;;;16.80;11.40;;;;;;;4.62;68.57;100387.46;127709;1290;99370;-75
2022/04/11 05:50:43;;;;;;;38.30;24.60;;;;;;;4.81;68.28;100388.77;127766;1290;99350;-75
2022/04/11 05:53:46;;;;;;;48.60;31.20;;;;;;;4.92;68.03;100387.27;127673;1290;99380;-76
2022/04/11 05:56:52;;;;;;;29.80;19.60;;;;;;;4.96;67.81;100390.47;127690;1290;99380;-76
2022/04/11 05:59:55;;;;;;;26.80;17.10;;;;;;;4.98;67.85;100387.70;127605;1290;100557;-76
2022/04/11 06:02:59;;;;;;;27.50;15.50;;;;;;;4.97;67.79;100392.49;127594;1290;100563;-75
2022/04/11 06:06:02;;;;;;;13.70;7.00;;;;;;;4.85;67.66;100399.38;127631;1291;99482;-76
2022/04/11 06:09:06;;;;;;;13.30;8.40;;;;;;;4.65;67.77;100402.59;127637;1291;100643;-76
2022/04/11 06:12:11;;;;;;;11.00;6.30;;;;;;;4.66;68.34;100402.70;127747;1289;99373;-75
2022/04/11 06:15:17;;;;;;;8.90;4.90;;;;;;;4.73;68.12;100396.56;127699;1290;99347;-76
2022/04/11 06:18:20;;;;;;;13.50;6.20;;;;;;;4.76;68.05;100395.64;127870;1290;100570;-77
2022/04/11 06:21:24;;;;;;;10.70;5.70;;;;;;;4.72;67.91;100397.84;127911;1290;99399;-77
2022/04/11 06:24:27;;;;;;;11.20;5.10;;;;;;;4.67;67.99;100404.90;127871;1290;99380;-76
2022/04/11 06:27:32;;;;;;;10.90;5.10;;;;;;;4.63;67.97;100404.32;127837;1290;99364;-78
2022/04/11 06:30:35;;;;;;;10.00;5.70;;;;;;;4.66;68.38;100406.73;127974;1290;99393;-77
2022/04/11 06:33:38;;;;;;;10.70;5.60;;;;;;;4.63;68.31;100404.16;127621;1291;100561;-76
2022/04/11 06:36:41;;;;;;;15.00;8.40;;;;;;;4.61;68.44;100412.38;127884;1290;100544;-77
2022/04/11 06:39:44;;;;;;;11.60;7.30;;;;;;;4.59;68.26;100400.58;127671;1291;100543;-77
2022/04/11 06:42:47;;;;;;;11.20;5.00;;;;;;;4.65;68.27;100404.71;127689;1290;99472;-75
2022/04/11 06:46:10;;;;;;;44.20;23.20;;;;;;;4.69;68.62;100405.84;127669;1290;100564;-77
2022/04/11 06:49:14;;;;;;;11.70;5.70;;;;;;;4.88;68.52;100406.38;127719;1290;100449;-75
2022/04/11 06:52:17;;;;;;;13.60;7.60;;;;;;;5.13;68.03;100408.96;127740;1290;99417;-76
2022/04/11 06:55:20;;;;;;;10.80;5.00;;;;;;;5.33;67.61;100413.42;127840;1290;99376;-76
2022/04/11 06:58:23;;;;;;;17.50;8.00;;;;;;;5.40;66.96;100415.02;127793;1290;99385;-76
2022/04/11 07:01:26;;;;;;;10.90;5.50;;;;;;;5.41;67.07;100421.70;127706;1290;100550;-76
2022/04/11 07:04:28;;;;;;;78.60;38.70;;;;;;;5.45;66.89;100424.52;127805;1290;99800;-76
2022/04/11 07:07:31;;;;;;;70.30;35.40;;;;;;;5.51;67.23;100425.85;127657;1290;100954;-75
2022/04/11 07:10:37;;;;;;;86.70;44.30;;;;;;;5.68;67.21;100423.02;127749;1290;100548;-77
2022/04/11 07:13:39;;;;;;;84.80;41.50;;;;;;;5.78;66.46;100430.83;127764;1290;100433;-76
2022/04/11 07:16:42;;;;;;;26.60;12.80;;;;;;;5.80;66.73;100433.34;127861;1289;100480;-76
2022/04/11 07:19:45;;;;;;;15.70;8.60;;;;;;;5.93;66.27;100437.71;127791;1290;99478;-77
2022/04/11 07:22:47;;;;;;;14.80;7.90;;;;;;;5.89;66.46;100435.52;127965;1290;99351;-76
2022/04/11 07:25:50;;;;;;;9.70;5.00;;;;;;;5.86;65.72;100441.70;127979;1290;100552;-76
2022/04/11 07:28:53;;;;;;;11.30;6.60;;;;;;;5.78;65.92;100442.48;128018;1290;99933;-76
2022/04/11 07:31:56;;;;;;;9.90;5.60;;;;;;;5.69;65.13;100445.48;127939;1290;99351;-75
2022/04/11 07:34:59;;;;;;;12.00;8.20;;;;;;;5.72;65.79;100445.96;127964;1290;99382;-75
2022/04/11 07:38:02;;;;;;;16.60;10.90;;;;;;;5.79;66.04;100449.55;127702;1291;99370;-75
2022/04/11 07:41:04;;;;;;;11.00;7.40;;;;;;;5.85;65.71;100452.90;127691;1290;100555;-76
2022/04/11 07:44:07;;;;;;;35.70;21.20;;;;;;;5.83;65.25;100459.59;127875;1290;99394;-78
2022/04/11 07:47:10;;;;;;;117.10;68.50;;;;;;;5.85;66.03;100454.73;127888;1289;101037;-77
2022/04/11 07:50:13;;;;;;;31.90;18.10;;;;;;;6.02;65.32;100459.45;128002;1290;100666;-78
2022/04/11 07:53:16;;;;;;;10.70;6.90;;;;;;;6.00;64.90;100457.80;127651;1289;99348;-77
2022/04/11 07:56:19;;;;;;;11.50;7.10;;;;;;;5.90;65.43;100457.65;127830;1290;99797;-76
2022/04/11 07:59:21;;;;;;;29.90;16.50;;;;;;;5.89;65.25;100461.95;127741;1290;99376;-76
2022/04/11 08:02:25;;;;;;;134.80;73.50;;;;;;;5.91;65.63;100464.14;127822;1290;99386;-77
2022/04/11 08:05:28;;;;;;;93.20;51.10;;;;;;;5.90;65.18;100466.13;127967;1290;100577;-76
2022/04/11 08:08:31;;;;;;;20.00;11.80;;;;;;;5.80;65.21;100464.81;127777;1289;100053;-77
2022/04/11 08:11:34;;;;;;;31.30;16.30;;;;;;;5.83;65.36;100462.64;127733;1290;100393;-77
2022/04/11 08:14:36;;;;;;;37.50;21.40;;;;;;;5.97;65.53;100461.95;127729;1290;99440;-75
2022/04/11 08:17:39;;;;;;;63.30;33.40;;;;;;;6.11;65.02;100465.41;127702;1290;99388;-76
2022/04/11 08:20:42;;;;;;;60.70;30.80;;;;;;;6.12;64.85;100466.77;127810;1290;100522;-75
2022/04/11 08:23:44;;;;;;;17.80;8.90;;;;;;;6.06;64.62;100470.39;127871;1290;99653;-77
2022/04/11 08:26:47;;;;;;;12.40;7.00;;;;;;;5.98;64.11;100476.02;127751;1290;99522;-76
2022/04/11 08:29:50;;;;;;;60.00;28.50;;;;;;;5.91;64.49;100470.80;127757;1289;99390;-77
2022/04/11 08:32:53;;;;;;;10.10;6.10;;;;;;;6.11;64.59;100475.16;127731;1290;113694;-76
2022/04/11 08:35:56;;;;;;;24.30;13.60;;;;;;;6.26;63.10;100470.41;127826;1290;113722;-76
2022/04/11 08:38:59;;;;;;;11.70;5.80;;;;;;;6.48;63.51;100472.23;128017;1290;113763;-75
2022/04/11 08:42:03;;;;;;;45.30;20.60;;;;;;;6.48;63.09;100471.39;127845;1290;99351;-76
2022/04/11 08:45:08;;;;;;;80.30;34.20;;;;;;;6.58;63.46;100468.48;127816;1290;113874;-76
2022/04/11 08:48:11;;;;;;;17.50;9.60;;;;;;;6.80;63.87;100467.93;127800;1290;113926;-75
2022/04/11 08:51:14;;;;;;;24.90;12.50;;;;;;;7.00;63.06;100469.51;127850;1290;117858;-75
2022/04/11 08:54:18;;;;;;;31.20;14.10;;;;;;;7.15;63.01;100474.54;127736;1290;113765;-76
2022/04/11 08:57:23;;;;;;;28.10;11.20;;;;;;;7.20;62.54;100469.86;127948;1290;113721;-75
2022/04/11 09:00:27;;;;;;;36.70;16.10;;;;;;;7.31;62.67;100472.30;128108;1290;113804;-76
2022/04/11 09:03:30;;;;;;;10.60;5.90;;;;;;;7.33;61.31;100466.84;127867;1290;116138;-74
2022/04/11 09:06:36;;;;;;;7.50;4.50;;;;;;;7.28;61.16;100463.19;127667;1290;112897;-75
2022/04/11 09:09:48;;;;;;;8.60;4.30;;;;;;;7.10;60.31;100460.88;127908;1291;114483;-76
2022/04/11 09:12:53;;;;;;;21.40;9.10;;;;;;;6.93;61.56;100461.95;127820;1291;112723;-75
2022/04/11 09:15:56;;;;;;;18.60;6.80;;;;;;;6.97;61.74;100466.79;127986;1289;117934;-75
2022/04/11 09:18:59;;;;;;;55.50;19.10;;;;;;;7.05;62.44;100462.20;127950;1289;100426;-77
2022/04/11 09:22:02;;;;;;;46.70;24.10;;;;;;;7.28;62.28;100461.06;127748;1290;99416;-75
2022/04/11 09:25:10;;;;;;;51.80;25.50;;;;;;;7.52;61.83;100457.31;127881;1291;99367;-75
2022/04/11 09:28:13;;;;;;;8.40;5.20;;;;;;;7.70;60.61;100459.55;127905;1290;113541;-75
2022/04/11 09:31:21;;;;;;;8.60;5.30;;;;;;;7.65;60.44;100458.31;127745;1290;99446;-75
2022/04/11 09:34:27;;;;;;;7.70;4.50;;;;;;;7.65;58.66;100463.15;127695;1290;113928;-75
2022/04/11 09:37:29;;;;;;;6.80;3.20;;;;;;;7.52;59.07;100462.63;127810;1290;113887;-76
2022/04/11 09:40:36;;;;;;;9.20;3.60;;;;;;;7.40;58.94;100463.27;127891;1291;100573;-75
2022/04/11 09:43:39;;;;;;;13.70;7.50;;;;;;;7.33;59.17;100463.66;127804;1290;113449;-73
2022/04/11 09:46:44;;;;;;;18.10;10.50;;;;;;;7.41;58.89;100463.52;127838;1291;99373;-75
2022/04/11 09:49:47;;;;;;;13.00;6.80;;;;;;;7.63;59.31;100462.40;127753;1291;113645;-75
2022/04/11 09:52:49;;;;;;;6.30;3.50;;;;;;;7.93;59.30;100459.13;127900;1290;99411;-75
2022/04/11 09:55:53;;;;;;;5.90;3.20;;;;;;;8.23;58.00;100455.90;127769;1290;100551;-77
2022/04/11 09:58:57;;;;;;;7.20;3.30;;;;;;;8.57;58.58;100449.04;127959;1290;113650;-76
2022/04/11 10:02:00;;;;;;;7.60;3.50;;;;;;;8.72;54.03;100447.56;127826;1290;113939;-75
2022/04/11 10:05:04;;;;;;;5.60;3.30;;;;;;;8.66;56.63;100445.78;127902;1290;99395;-75
2022/04/11 10:08:10;;;;;;;5.10;3.40;;;;;;;8.78;57.50;100445.41;127936;1290;113788;-75
2022/04/11 10:11:18;;;;;;;8.00;3.50;;;;;;;8.79;54.01;100447.30;127830;1290;113867;-75
2022/04/11 10:14:27;;;;;;;7.00;4.70;;;;;;;8.69;54.58;100447.14;127699;1290;113994;-74
2022/04/11 10:17:30;;;;;;;6.10;3.50;;;;;;;8.71;54.00;100442.18;127929;1290;113804;-76
2022/04/11 10:20:37;;;;;;;7.10;3.30;;;;;;;8.53;55.16;100455.73;127756;1290;99788;-75
2022/04/11 10:23:51;;;;;;;5.90;2.80;;;;;;;8.40;55.15;100456.71;127944;1290;113785;-76
2022/04/11 10:26:56;;;;;;;4.60;2.70;;;;;;;8.45;57.14;100459.67;127687;1290;113967;-76
2022/04/11 10:29:59;;;;;;;6.60;3.00;;;;;;;8.63;56.13;100459.35;127841;1290;113953;-74
2022/04/11 10:33:02;;;;;;;7.00;3.10;;;;;;;8.62;56.65;100459.55;127804;1290;113947;-75
2022/04/11 10:36:24;;;;;;;5.80;3.20;;;;;;;8.73;55.93;100459.73;127668;1290;99436;-76
2022/04/11 10:39:28;;;;;;;8.70;4.40;;;;;;;8.74;56.59;100451.98;127691;1290;113809;-75
2022/04/11 10:42:31;;;;;;;5.40;4.00;;;;;;;8.81;54.81;100458.09;127660;1290;112706;-76
2022/04/11 10:45:36;;;;;;;6.00;3.70;;;;;;;8.79;56.06;100452.98;127662;1290;99403;-74
2022/04/11 10:49:05;;;;;;;6.50;3.90;;;;;;;8.83;55.62;100454.92;127838;1290;113854;-75
2022/04/11 10:52:30;;;;;;;6.50;3.60;;;;;;;8.61;53.00;100459.18;127840;1290;113716;-76
2022/04/11 10:55:33;;;;;;;6.30;3.40;;;;;;;8.33;53.81;100467.24;127942;1290;113773;-75
2022/04/11 10:58:45;;;;;;;9.10;5.20;;;;;;;8.27;54.46;100463.00;127840;1290;113857;-76
2022/04/11 11:01:58;;;;;;;9.60;4.30;;;;;;;8.19;54.19;100462.09;127981;1290;113746;-75
2022/04/11 11:05:21;;;;;;;5.70;4.20;;;;;;;8.02;54.54;100463.71;127847;1290;113809;-75
2022/04/11 11:08:32;;;;;;;6.20;3.90;;;;;;;7.78;54.36;100462.70;130197;1277;114159;-75
2022/04/11 11:11:35;;;;;;;9.30;5.60;;;;;;;7.61;55.52;100465.23;128579;1286;117686;-75
2022/04/11 11:14:42;;;;;;;7.60;4.90;;;;;;;7.55;55.67;100465.55;128627;1287;113944;-74
2022/04/11 11:17:58;;;;;;;9.50;5.90;;;;;;;7.67;55.96;100465.04;128550;1288;113756;-75
2022/04/11 11:21:00;;;;;;;15.40;9.10;;;;;;;7.88;56.12;100462.79;128588;1287;113828;-74
2022/04/11 11:24:14;;;;;;;9.40;4.90;;;;;;;8.02;55.71;100466.56;128564;1287;99391;-76
2022/04/11 11:27:19;;;;;;;11.20;5.50;;;;;;;8.18;55.55;100459.82;128535;1287;113744;-75
2022/04/11 11:30:21;;;;;;;7.90;4.50;;;;;;;8.33;54.45;100457.31;128560;1287;113805;-74
2022/04/11 11:33:27;;;;;;;8.40;4.60;;;;;;;8.49;54.21;100458.23;128521;1286;99350;-76
2022/04/11 11:36:30;;;;;;;7.40;4.70;;;;;;;8.58;52.36;100446.63;128600;1287;113046;-75
2022/04/11 11:39:36;;;;;;;6.90;3.90;;;;;;;8.61;52.24;100446.87;128492;1287;113874;-75
2022/04/11 11:42:39;;;;;;;6.60;4.10;;;;;;;8.80;52.70;100447.89;128358;1287;112719;-75
2022/04/11 11:45:42;;;;;;;7.10;3.90;;;;;;;8.97;53.12;100442.63;128425;1287;112853;-76
2022/04/11 11:48:44;;;;;;;6.80;3.80;;;;;;;9.20;53.63;100436.54;128365;1287;100574;-75
2022/04/11 11:51:48;;;;;;;6.20;4.40;;;;;;;9.42;53.32;100429.73;128350;1287;99365;-74
2022/04/11 11:54:52;;;;;;;7.20;3.60;;;;;;;9.48;52.55;100428.28;128405;1287;99342;-74
2022/04/11 11:58:04;;;;;;;6.20;3.30;;;;;;;9.52;52.55;100431.09;128463;1287;113533;-74
2022/04/11 12:01:10;;;;;;;6.30;3.50;;;;;;;9.60;52.66;100431.02;128477;1286;113600;-75
2022/04/11 12:04:20;;;;;;;5.20;3.20;;;;;;;9.76;52.34;100423.84;128451;1287;113818;-76
2022/04/11 12:07:23;;;;;;;6.90;4.00;;;;;;;9.92;51.52;100426.52;128258;1287;113885;-75
2022/04/11 12:10:26;;;;;;;3.80;3.30;;;;;;;9.91;52.42;100427.98;128167;1287;100538;-75
2022/04/11 12:13:30;;;;;;;5.50;3.90;;;;;;;10.04;52.71;100422.73;128113;1287;99366;-75
2022/04/11 12:16:34;;;;;;;3.80;3.00;;;;;;;10.03;52.34;100423.51;128154;1287;113417;-75
2022/04/11 12:19:37;;;;;;;8.00;5.10;;;;;;;9.89;51.62;100424.64;128300;1287;113881;-75
2022/04/11 12:22:41;;;;;;;8.80;5.80;;;;;;;9.51;50.55;100428.11;127948;1287;206585;-76
2022/04/11 12:25:51;;;;;;;6.20;4.40;;;;;;;9.13;50.36;100429.30;128256;1287;114514;-75
2022/04/11 12:28:55;;;;;;;165.50;37.10;;;;;;;9.04;52.18;100424.10;128210;1287;113312;-75
2022/04/11 12:31:59;;;;;;;23.30;11.40;;;;;;;9.27;53.08;100421.34;128244;1287;113611;-75
2022/04/11 12:35:16;;;;;;;64.40;38.00;;;;;;;9.37;52.48;100422.66;128301;1287;114246;-76
2022/04/11 12:38:40;;;;;;;120.40;77.90;;;;;;;9.35;52.51;100424.86;128258;1287;113985;-74
2022/04/11 12:41:45;;;;;;;48.90;29.70;;;;;;;9.32;52.70;100427.36;128373;1286;117698;-76
2022/04/11 12:44:48;;;;;;;17.90;12.00;;;;;;;9.26;51.91;100429.19;128559;1287;114103;-76
2022/04/11 12:48:05;;;;;;;56.90;30.40;;;;;;;9.11;52.43;100426.19;128588;1287;113829;-76
2022/04/11 12:51:13;;;;;;;15.90;11.20;;;;;;;9.13;52.32;100429.73;128527;1287;113719;-75
2022/04/11 12:54:16;;;;;;;11.50;7.30;;;;;;;9.05;52.03;100429.74;128572;1287;113194;-75
2022/04/11 12:57:23;;;;;;;8.10;5.90;;;;;;;8.87;52.13;100435.05;128449;1287;99339;-75
2022/04/11 13:00:29;;;;;;;6.20;3.50;;;;;;;8.62;51.18;100434.95;128439;1287;113807;-77
2022/04/11 13:03:31;;;;;;;17.70;13.60;;;;;;;8.43;52.25;100434.96;128426;1287;113794;-75
2022/04/11 13:06:34;;;;;;;8.00;4.80;;;;;;;8.39;52.67;100439.61;128583;1287;99356;-74
2022/04/11 13:09:38;;;;;;;4.70;3.70;;;;;;;8.39;52.66;100439.90;128566;1287;99407;-75
2022/04/11 13:12:41;;;;;;;6.60;3.70;;;;;;;8.42;52.48;100434.41;128556;1287;112733;-75
2022/04/11 13:19:01;;;;;;;4.70;3.10;;;;;;;8.31;51.37;100431.76;128468;1287;113679;-75
2022/04/11 13:22:05;;;;;;;5.60;3.80;;;;;;;8.36;51.70;100426.74;128449;1287;99394;-76
2022/04/11 13:25:09;;;;;;;5.30;4.10;;;;;;;8.42;52.52;100424.59;128495;1287;113855;-76
2022/04/11 13:28:12;;;;;;;5.20;3.80;;;;;;;8.49;52.51;100422.95;128460;1287;114050;-75
2022/04/11 13:31:15;;;;;;;7.90;5.40;;;;;;;8.58;52.66;100417.07;128423;1287;99449;-74
2022/04/11 13:34:18;;;;;;;6.30;4.20;;;;;;;8.68;52.48;100409.64;128310;1287;113781;-75
2022/04/11 13:37:21;;;;;;;6.20;4.00;;;;;;;8.78;52.67;100407.30;128438;1287;99351;-75
2022/04/11 13:40:24;;;;;;;7.60;4.70;;;;;;;8.89;52.68;100403.29;128464;1287;99376;-75
2022/04/11 13:43:27;;;;;;;9.60;7.00;;;;;;;8.87;52.19;100401.88;128412;1287;99838;-75
2022/04/11 13:46:29;;;;;;;8.80;5.20;;;;;;;8.89;52.90;100399.21;128493;1287;100544;-74
2022/04/11 13:49:34;;;;;;;7.00;5.90;;;;;;;9.08;52.96;100392.35;128399;1287;99702;-74
2022/04/11 13:52:38;;;;;;;58.10;42.60;;;;;;;9.28;52.71;100391.19;128351;1287;113761;-73
2022/04/11 13:55:41;;;;;;;12.30;8.60;;;;;;;9.33;52.91;100393.59;128494;1287;113813;-74
2022/04/11 13:58:44;;;;;;;11.80;8.10;;;;;;;9.36;51.94;100393.14;128375;1287;99465;-73
2022/04/11 14:01:48;;;;;;;19.30;15.10;;;;;;;9.34;51.49;100391.32;128754;1287;99772;-73
2022/04/11 14:04:51;;;;;;;6.50;4.70;;;;;;;9.30;50.26;100397.46;128449;1287;113773;-74